sensor_id;sensor_type;location;lat;lon;timestamp;P1;durP1;ratioP1;P2;durP2;ratioP2
23684;SDS011;12020;51.384;6.908;2024-03-29T00:00:37;2.40;;;1.03;;
23684;SDS011;12020;51.384;6.908;2024-03-29T00:03:03;4.17;;;1.33;;
23684;SDS011;12020;51.384;6.908;2024-03-29T00:05:29;2.72;;;0.82;;
23684;SDS011;12020;51.384;6.908;2024-03-29T00:07:55;3.25;;;1.10;;
23684;SDS011;12020;51.384;6.908;2024-03-29T00:10:20;4.60;;;1.20;;
23684;SDS011;12020;51.384;6.908;2024-03-29T00:12:46;3.58;;;1.02;;
23684;SDS011;12020;51.384;6.908;2024-03-29T00:15:12;2.55;;;0.90;;
23684;SDS011;12020;51.384;6.908;2024-03-29T00:17:37;3.07;;;1.10;;
23684;SDS011;12020;51.384;6.908;2024-03-29T00:20:04;2.15;;;0.90;;
23684;SDS011;12020;51.384;6.908;2024-03-29T00:22:31;4.27;;;1.10;;
23684;SDS011;12020;51.384;6.908;2024-03-29T00:24:56;3.63;;;1.35;;
23684;SDS011;12020;51.384;6.908;2024-03-29T00:27:23;2.50;;;0.90;;
23684;SDS011;12020;51.384;6.908;2024-03-29T00:29:51;2.00;;;0.90;;
23684;SDS011;12020;51.384;6.908;2024-03-29T00:32:20;3.55;;;1.02;;
23684;SDS011;12020;51.384;6.908;2024-03-29T00:34:48;2.90;;;1.05;;
23684;SDS011;12020;51.384;6.908;2024-03-29T00:37:14;2.35;;;0.88;;
23684;SDS011;12020;51.384;6.908;2024-03-29T00:39:40;2.03;;;1.00;;
23684;SDS011;12020;51.384;6.908;2024-03-29T00:42:06;2.53;;;0.88;;
23684;SDS011;12020;51.384;6.908;2024-03-29T00:44:34;2.45;;;0.82;;
23684;SDS011;12020;51.384;6.908;2024-03-29T00:47:02;3.30;;;1.00;;
23684;SDS011;12020;51.384;6.908;2024-03-29T00:49:28;2.37;;;0.80;;
23684;SDS011;12020;51.384;6.908;2024-03-29T00:51:54;3.38;;;1.00;;
23684;SDS011;12020;51.384;6.908;2024-03-29T00:54:20;2.13;;;0.90;;
23684;SDS011;12020;51.384;6.908;2024-03-29T00:56:46;3.43;;;0.90;;
23684;SDS011;12020;51.384;6.908;2024-03-29T00:59:11;2.90;;;1.00;;
23684;SDS011;12020;51.384;6.908;2024-03-29T01:01:37;2.30;;;0.80;;
23684;SDS011;12020;51.384;6.908;2024-03-29T01:04:03;2.77;;;0.80;;
23684;SDS011;12020;51.384;6.908;2024-03-29T01:06:29;2.80;;;0.80;;
23684;SDS011;12020;51.384;6.908;2024-03-29T01:08:54;2.30;;;0.87;;
23684;SDS011;12020;51.384;6.908;2024-03-29T01:11:20;2.40;;;0.90;;
23684;SDS011;12020;51.384;6.908;2024-03-29T01:13:46;1.83;;;0.80;;
23684;SDS011;12020;51.384;6.908;2024-03-29T01:16:12;2.60;;;0.90;;
23684;SDS011;12020;51.384;6.908;2024-03-29T01:18:38;3.00;;;0.90;;
23684;SDS011;12020;51.384;6.908;2024-03-29T01:21:04;2.22;;;0.90;;
23684;SDS011;12020;51.384;6.908;2024-03-29T01:23:29;2.53;;;0.70;;
23684;SDS011;12020;51.384;6.908;2024-03-29T01:25:55;2.47;;;0.90;;
23684;SDS011;12020;51.384;6.908;2024-03-29T01:28:20;2.90;;;0.70;;
23684;SDS011;12020;51.384;6.908;2024-03-29T01:30:52;2.38;;;0.77;;
23684;SDS011;12020;51.384;6.908;2024-03-29T01:33:19;2.00;;;0.70;;
23684;SDS011;12020;51.384;6.908;2024-03-29T01:35:46;2.47;;;0.90;;
23684;SDS011;12020;51.384;6.908;2024-03-29T01:38:11;3.05;;;0.90;;
23684;SDS011;12020;51.384;6.908;2024-03-29T01:40:37;2.95;;;0.95;;
23684;SDS011;12020;51.384;6.908;2024-03-29T01:43:03;3.47;;;1.00;;
23684;SDS011;12020;51.384;6.908;2024-03-29T01:45:29;2.72;;;1.05;;
23684;SDS011;12020;51.384;6.908;2024-03-29T01:47:55;2.03;;;1.02;;
23684;SDS011;12020;51.384;6.908;2024-03-29T01:50:21;2.03;;;0.87;;
23684;SDS011;12020;51.384;6.908;2024-03-29T01:52:47;2.80;;;0.93;;
23684;SDS011;12020;51.384;6.908;2024-03-29T01:55:14;2.72;;;0.90;;
23684;SDS011;12020;51.384;6.908;2024-03-29T01:57:40;2.80;;;0.80;;
23684;SDS011;12020;51.384;6.908;2024-03-29T02:00:06;2.47;;;0.80;;
23684;SDS011;12020;51.384;6.908;2024-03-29T02:02:36;3.83;;;0.93;;
23684;SDS011;12020;51.384;6.908;2024-03-29T02:05:02;3.10;;;1.00;;
23684;SDS011;12020;51.384;6.908;2024-03-29T02:07:29;3.13;;;0.93;;
23684;SDS011;12020;51.384;6.908;2024-03-29T02:09:55;2.03;;;0.80;;
23684;SDS011;12020;51.384;6.908;2024-03-29T02:12:21;1.80;;;0.80;;
23684;SDS011;12020;51.384;6.908;2024-03-29T02:14:47;1.85;;;0.80;;
23684;SDS011;12020;51.384;6.908;2024-03-29T02:17:14;2.95;;;1.00;;
23684;SDS011;12020;51.384;6.908;2024-03-29T02:19:40;2.90;;;1.00;;
23684;SDS011;12020;51.384;6.908;2024-03-29T02:22:06;2.00;;;1.00;;
23684;SDS011;12020;51.384;6.908;2024-03-29T02:24:34;3.58;;;1.40;;
23684;SDS011;12020;51.384;6.908;2024-03-29T02:27:01;2.45;;;1.15;;
23684;SDS011;12020;51.384;6.908;2024-03-29T02:29:26;2.63;;;1.20;;
23684;SDS011;12020;51.384;6.908;2024-03-29T02:31:52;2.73;;;1.17;;
23684;SDS011;12020;51.384;6.908;2024-03-29T02:34:18;3.13;;;1.40;;
23684;SDS011;12020;51.384;6.908;2024-03-29T02:36:44;2.40;;;0.93;;
23684;SDS011;12020;51.384;6.908;2024-03-29T02:39:10;2.75;;;1.10;;
23684;SDS011;12020;51.384;6.908;2024-03-29T02:41:36;1.97;;;1.00;;
23684;SDS011;12020;51.384;6.908;2024-03-29T02:44:01;2.13;;;0.80;;
23684;SDS011;12020;51.384;6.908;2024-03-29T02:46:27;2.80;;;1.00;;
23684;SDS011;12020;51.384;6.908;2024-03-29T02:48:53;2.57;;;0.80;;
23684;SDS011;12020;51.384;6.908;2024-03-29T02:51:18;2.67;;;0.75;;
23684;SDS011;12020;51.384;6.908;2024-03-29T02:53:44;2.28;;;0.80;;
23684;SDS011;12020;51.384;6.908;2024-03-29T02:56:10;3.75;;;1.13;;
23684;SDS011;12020;51.384;6.908;2024-03-29T02:58:35;2.90;;;0.80;;
23684;SDS011;12020;51.384;6.908;2024-03-29T03:01:05;2.08;;;0.85;;
23684;SDS011;12020;51.384;6.908;2024-03-29T03:03:34;2.60;;;1.00;;
23684;SDS011;12020;51.384;6.908;2024-03-29T03:06:00;2.40;;;0.73;;
23684;SDS011;12020;51.384;6.908;2024-03-29T03:08:26;2.63;;;1.00;;
23684;SDS011;12020;51.384;6.908;2024-03-29T03:11:10;2.00;;;0.90;;
23684;SDS011;12020;51.384;6.908;2024-03-29T03:13:37;2.53;;;0.82;;
23684;SDS011;12020;51.384;6.908;2024-03-29T03:16:02;2.03;;;0.80;;
23684;SDS011;12020;51.384;6.908;2024-03-29T03:18:28;2.20;;;0.88;;
23684;SDS011;12020;51.384;6.908;2024-03-29T03:20:54;3.17;;;0.90;;
23684;SDS011;12020;51.384;6.908;2024-03-29T03:23:22;3.22;;;0.90;;
23684;SDS011;12020;51.384;6.908;2024-03-29T03:25:57;2.00;;;0.80;;
23684;SDS011;12020;51.384;6.908;2024-03-29T03:28:30;3.05;;;0.90;;
23684;SDS011;12020;51.384;6.908;2024-03-29T03:30:56;2.30;;;0.70;;
23684;SDS011;12020;51.384;6.908;2024-03-29T03:33:22;3.17;;;0.90;;
23684;SDS011;12020;51.384;6.908;2024-03-29T03:35:47;1.87;;;0.80;;
23684;SDS011;12020;51.384;6.908;2024-03-29T03:38:13;1.63;;;0.80;;
23684;SDS011;12020;51.384;6.908;2024-03-29T03:40:40;1.73;;;0.90;;
23684;SDS011;12020;51.384;6.908;2024-03-29T03:43:06;3.03;;;0.77;;
23684;SDS011;12020;51.384;6.908;2024-03-29T03:45:35;3.25;;;0.90;;
23684;SDS011;12020;51.384;6.908;2024-03-29T03:48:02;3.45;;;0.88;;
23684;SDS011;12020;51.384;6.908;2024-03-29T03:50:29;1.90;;;0.70;;
23684;SDS011;12020;51.384;6.908;2024-03-29T03:52:55;2.58;;;0.90;;
23684;SDS011;12020;51.384;6.908;2024-03-29T03:55:21;2.53;;;1.08;;
23684;SDS011;12020;51.384;6.908;2024-03-29T03:57:47;2.47;;;0.93;;
23684;SDS011;12020;51.384;6.908;2024-03-29T04:00:14;2.80;;;1.00;;
23684;SDS011;12020;51.384;6.908;2024-03-29T04:02:39;2.53;;;0.82;;
23684;SDS011;12020;51.384;6.908;2024-03-29T04:05:06;2.15;;;0.85;;
23684;SDS011;12020;51.384;6.908;2024-03-29T04:07:32;1.85;;;0.80;;
23684;SDS011;12020;51.384;6.908;2024-03-29T04:09:58;2.63;;;1.00;;
23684;SDS011;12020;51.384;6.908;2024-03-29T04:12:23;2.63;;;0.80;;
23684;SDS011;12020;51.384;6.908;2024-03-29T04:14:49;2.38;;;0.82;;
23684;SDS011;12020;51.384;6.908;2024-03-29T04:17:15;1.77;;;0.90;;
23684;SDS011;12020;51.384;6.908;2024-03-29T04:19:41;2.80;;;0.90;;
23684;SDS011;12020;51.384;6.908;2024-03-29T04:22:07;2.83;;;0.80;;
23684;SDS011;12020;51.384;6.908;2024-03-29T04:24:32;2.43;;;0.90;;
23684;SDS011;12020;51.384;6.908;2024-03-29T04:26:58;3.27;;;0.90;;
23684;SDS011;12020;51.384;6.908;2024-03-29T04:29:24;2.97;;;0.77;;
23684;SDS011;12020;51.384;6.908;2024-03-29T04:31:50;1.87;;;1.00;;
23684;SDS011;12020;51.384;6.908;2024-03-29T04:34:16;2.88;;;0.80;;
23684;SDS011;12020;51.384;6.908;2024-03-29T04:36:42;2.93;;;1.20;;
23684;SDS011;12020;51.384;6.908;2024-03-29T04:39:07;2.70;;;0.90;;
23684;SDS011;12020;51.384;6.908;2024-03-29T04:41:35;2.40;;;0.90;;
23684;SDS011;12020;51.384;6.908;2024-03-29T04:44:01;3.40;;;1.17;;
23684;SDS011;12020;51.384;6.908;2024-03-29T04:46:29;3.80;;;1.30;;
23684;SDS011;12020;51.384;6.908;2024-03-29T04:48:55;2.65;;;1.08;;
23684;SDS011;12020;51.384;6.908;2024-03-29T04:51:20;2.50;;;0.95;;
23684;SDS011;12020;51.384;6.908;2024-03-29T04:53:47;1.77;;;1.00;;
23684;SDS011;12020;51.384;6.908;2024-03-29T04:56:13;3.20;;;1.00;;
23684;SDS011;12020;51.384;6.908;2024-03-29T04:58:38;2.00;;;1.00;;
23684;SDS011;12020;51.384;6.908;2024-03-29T05:01:04;2.70;;;1.00;;
23684;SDS011;12020;51.384;6.908;2024-03-29T05:03:30;2.38;;;1.00;;
23684;SDS011;12020;51.384;6.908;2024-03-29T05:05:56;2.20;;;0.90;;
23684;SDS011;12020;51.384;6.908;2024-03-29T05:08:21;3.40;;;1.20;;
23684;SDS011;12020;51.384;6.908;2024-03-29T05:10:50;2.92;;;1.05;;
23684;SDS011;12020;51.384;6.908;2024-03-29T05:13:16;2.78;;;1.10;;
23684;SDS011;12020;51.384;6.908;2024-03-29T05:15:44;2.50;;;1.00;;
23684;SDS011;12020;51.384;6.908;2024-03-29T05:18:10;2.67;;;1.20;;
23684;SDS011;12020;51.384;6.908;2024-03-29T05:20:36;2.63;;;1.10;;
23684;SDS011;12020;51.384;6.908;2024-03-29T05:23:02;1.87;;;1.00;;
23684;SDS011;12020;51.384;6.908;2024-03-29T05:25:28;3.07;;;1.10;;
23684;SDS011;12020;51.384;6.908;2024-03-29T05:27:53;2.47;;;1.07;;
23684;SDS011;12020;51.384;6.908;2024-03-29T05:30:19;2.33;;;1.03;;
23684;SDS011;12020;51.384;6.908;2024-03-29T05:32:45;3.40;;;1.20;;
23684;SDS011;12020;51.384;6.908;2024-03-29T05:35:10;3.60;;;1.07;;
23684;SDS011;12020;51.384;6.908;2024-03-29T05:37:36;3.73;;;1.43;;
23684;SDS011;12020;51.384;6.908;2024-03-29T05:40:02;3.80;;;1.17;;
23684;SDS011;12020;51.384;6.908;2024-03-29T05:42:32;4.07;;;1.20;;
23684;SDS011;12020;51.384;6.908;2024-03-29T05:44:59;2.63;;;1.15;;
23684;SDS011;12020;51.384;6.908;2024-03-29T05:47:25;3.08;;;1.33;;
23684;SDS011;12020;51.384;6.908;2024-03-29T05:49:51;2.70;;;1.20;;
23684;SDS011;12020;51.384;6.908;2024-03-29T05:52:17;2.67;;;1.30;;
23684;SDS011;12020;51.384;6.908;2024-03-29T05:54:43;3.22;;;1.35;;
23684;SDS011;12020;51.384;6.908;2024-03-29T05:57:09;2.00;;;1.00;;
23684;SDS011;12020;51.384;6.908;2024-03-29T05:59:35;3.35;;;1.40;;
23684;SDS011;12020;51.384;6.908;2024-03-29T06:02:01;3.70;;;1.17;;
23684;SDS011;12020;51.384;6.908;2024-03-29T06:04:27;3.85;;;1.20;;
23684;SDS011;12020;51.384;6.908;2024-03-29T06:07:00;2.17;;;1.08;;
23684;SDS011;12020;51.384;6.908;2024-03-29T06:09:28;2.85;;;1.23;;
23684;SDS011;12020;51.384;6.908;2024-03-29T06:11:55;2.20;;;1.17;;
23684;SDS011;12020;51.384;6.908;2024-03-29T06:14:21;3.80;;;1.15;;
23684;SDS011;12020;51.384;6.908;2024-03-29T06:17:09;2.67;;;1.00;;
23684;SDS011;12020;51.384;6.908;2024-03-29T06:19:53;2.30;;;1.10;;
23684;SDS011;12020;51.384;6.908;2024-03-29T06:22:24;2.58;;;1.00;;
23684;SDS011;12020;51.384;6.908;2024-03-29T06:24:51;3.10;;;1.40;;
23684;SDS011;12020;51.384;6.908;2024-03-29T06:27:23;2.53;;;1.13;;
23684;SDS011;12020;51.384;6.908;2024-03-29T06:29:51;2.92;;;1.10;;
23684;SDS011;12020;51.384;6.908;2024-03-29T06:32:17;3.67;;;1.20;;
23684;SDS011;12020;51.384;6.908;2024-03-29T06:34:43;2.95;;;1.10;;
23684;SDS011;12020;51.384;6.908;2024-03-29T06:37:12;2.55;;;1.10;;
23684;SDS011;12020;51.384;6.908;2024-03-29T06:39:38;2.67;;;1.10;;
23684;SDS011;12020;51.384;6.908;2024-03-29T06:42:06;3.80;;;1.10;;
23684;SDS011;12020;51.384;6.908;2024-03-29T06:44:34;4.03;;;1.30;;
23684;SDS011;12020;51.384;6.908;2024-03-29T06:47:01;3.67;;;1.40;;
23684;SDS011;12020;51.384;6.908;2024-03-29T06:49:27;4.32;;;1.50;;
23684;SDS011;12020;51.384;6.908;2024-03-29T06:51:53;3.57;;;1.30;;
23684;SDS011;12020;51.384;6.908;2024-03-29T06:54:20;2.75;;;1.30;;
23684;SDS011;12020;51.384;6.908;2024-03-29T06:56:48;3.10;;;1.30;;
23684;SDS011;12020;51.384;6.908;2024-03-29T06:59:14;2.47;;;1.30;;
23684;SDS011;12020;51.384;6.908;2024-03-29T07:01:40;2.50;;;1.10;;
23684;SDS011;12020;51.384;6.908;2024-03-29T07:04:06;2.92;;;1.40;;
23684;SDS011;12020;51.384;6.908;2024-03-29T07:06:31;2.87;;;1.23;;
23684;SDS011;12020;51.384;6.908;2024-03-29T07:08:57;2.93;;;1.30;;
23684;SDS011;12020;51.384;6.908;2024-03-29T07:11:23;3.07;;;1.30;;
23684;SDS011;12020;51.384;6.908;2024-03-29T07:13:48;2.23;;;1.17;;
23684;SDS011;12020;51.384;6.908;2024-03-29T07:16:14;4.10;;;1.30;;
23684;SDS011;12020;51.384;6.908;2024-03-29T07:18:40;2.97;;;1.23;;
23684;SDS011;12020;51.384;6.908;2024-03-29T07:21:05;1.85;;;1.35;;
23684;SDS011;12020;51.384;6.908;2024-03-29T07:23:31;4.13;;;1.13;;
23684;SDS011;12020;51.384;6.908;2024-03-29T07:25:57;2.50;;;1.08;;
23684;SDS011;12020;51.384;6.908;2024-03-29T07:28:24;3.23;;;1.20;;
23684;SDS011;12020;51.384;6.908;2024-03-29T07:30:50;2.65;;;1.10;;
23684;SDS011;12020;51.384;6.908;2024-03-29T07:33:17;2.83;;;1.40;;
23684;SDS011;12020;51.384;6.908;2024-03-29T07:35:44;3.22;;;1.25;;
23684;SDS011;12020;51.384;6.908;2024-03-29T07:38:10;3.25;;;1.20;;
23684;SDS011;12020;51.384;6.908;2024-03-29T07:40:36;3.47;;;1.35;;
23684;SDS011;12020;51.384;6.908;2024-03-29T07:43:01;1.83;;;1.40;;
23684;SDS011;12020;51.384;6.908;2024-03-29T07:45:29;2.65;;;1.40;;
23684;SDS011;12020;51.384;6.908;2024-03-29T07:47:55;3.35;;;1.00;;
23684;SDS011;12020;51.384;6.908;2024-03-29T07:50:20;2.63;;;1.20;;
23684;SDS011;12020;51.384;6.908;2024-03-29T07:52:46;2.90;;;1.20;;
23684;SDS011;12020;51.384;6.908;2024-03-29T07:55:11;2.53;;;1.13;;
23684;SDS011;12020;51.384;6.908;2024-03-29T07:57:37;2.05;;;1.30;;
23684;SDS011;12020;51.384;6.908;2024-03-29T08:00:03;2.72;;;1.40;;
23684;SDS011;12020;51.384;6.908;2024-03-29T08:02:31;3.20;;;1.40;;
23684;SDS011;12020;51.384;6.908;2024-03-29T08:04:57;2.25;;;1.35;;
23684;SDS011;12020;51.384;6.908;2024-03-29T08:07:22;2.80;;;1.50;;
23684;SDS011;12020;51.384;6.908;2024-03-29T08:09:49;3.70;;;1.20;;
23684;SDS011;12020;51.384;6.908;2024-03-29T08:12:15;2.42;;;1.50;;
23684;SDS011;12020;51.384;6.908;2024-03-29T08:14:41;3.45;;;1.45;;
23684;SDS011;12020;51.384;6.908;2024-03-29T08:17:07;4.28;;;1.70;;
23684;SDS011;12020;51.384;6.908;2024-03-29T08:19:41;1.80;;;1.30;;
23684;SDS011;12020;51.384;6.908;2024-03-29T08:22:09;2.42;;;1.40;;
23684;SDS011;12020;51.384;6.908;2024-03-29T08:24:38;3.30;;;1.50;;
23684;SDS011;12020;51.384;6.908;2024-03-29T08:27:03;2.27;;;1.50;;
23684;SDS011;12020;51.384;6.908;2024-03-29T08:29:29;2.23;;;1.43;;
23684;SDS011;12020;51.384;6.908;2024-03-29T08:31:55;3.13;;;1.93;;
23684;SDS011;12020;51.384;6.908;2024-03-29T08:34:22;2.90;;;1.60;;
23684;SDS011;12020;51.384;6.908;2024-03-29T08:36:47;2.80;;;1.50;;
23684;SDS011;12020;51.384;6.908;2024-03-29T08:39:13;3.00;;;1.67;;
23684;SDS011;12020;51.384;6.908;2024-03-29T08:41:38;4.13;;;1.93;;
23684;SDS011;12020;51.384;6.908;2024-03-29T08:44:05;3.47;;;1.73;;
23684;SDS011;12020;51.384;6.908;2024-03-29T08:46:32;2.50;;;1.55;;
23684;SDS011;12020;51.384;6.908;2024-03-29T08:48:58;2.75;;;1.60;;
23684;SDS011;12020;51.384;6.908;2024-03-29T08:51:27;2.53;;;2.08;;
23684;SDS011;12020;51.384;6.908;2024-03-29T08:53:54;1.90;;;1.67;;
23684;SDS011;12020;51.384;6.908;2024-03-29T08:56:24;3.50;;;1.98;;
23684;SDS011;12020;51.384;6.908;2024-03-29T08:58:49;2.95;;;1.85;;
23684;SDS011;12020;51.384;6.908;2024-03-29T09:01:25;3.20;;;1.60;;
23684;SDS011;12020;51.384;6.908;2024-03-29T09:03:52;4.10;;;2.13;;
23684;SDS011;12020;51.384;6.908;2024-03-29T09:06:18;2.07;;;1.43;;
23684;SDS011;12020;51.384;6.908;2024-03-29T09:08:44;2.88;;;1.67;;
23684;SDS011;12020;51.384;6.908;2024-03-29T09:11:16;3.63;;;1.80;;
23684;SDS011;12020;51.384;6.908;2024-03-29T09:13:45;2.38;;;1.60;;
23684;SDS011;12020;51.384;6.908;2024-03-29T09:16:14;2.58;;;1.60;;
23684;SDS011;12020;51.384;6.908;2024-03-29T09:18:40;3.03;;;1.85;;
23684;SDS011;12020;51.384;6.908;2024-03-29T09:21:06;3.90;;;1.80;;
23684;SDS011;12020;51.384;6.908;2024-03-29T09:23:35;2.25;;;1.40;;
23684;SDS011;12020;51.384;6.908;2024-03-29T09:26:04;3.05;;;1.52;;
23684;SDS011;12020;51.384;6.908;2024-03-29T09:28:30;2.50;;;1.70;;
23684;SDS011;12020;51.384;6.908;2024-03-29T09:30:57;4.13;;;1.77;;
23684;SDS011;12020;51.384;6.908;2024-03-29T09:33:29;2.57;;;1.43;;
23684;SDS011;12020;51.384;6.908;2024-03-29T09:35:57;2.03;;;1.45;;
23684;SDS011;12020;51.384;6.908;2024-03-29T09:38:24;2.38;;;1.50;;
23684;SDS011;12020;51.384;6.908;2024-03-29T09:43:35;2.17;;;1.40;;
23684;SDS011;12020;51.384;6.908;2024-03-29T09:46:02;2.93;;;1.50;;
23684;SDS011;12020;51.384;6.908;2024-03-29T09:48:28;2.72;;;1.48;;
23684;SDS011;12020;51.384;6.908;2024-03-29T09:51:02;2.13;;;1.42;;
23684;SDS011;12020;51.384;6.908;2024-03-29T09:53:37;2.22;;;1.30;;
23684;SDS011;12020;51.384;6.908;2024-03-29T09:56:03;1.52;;;1.23;;
23684;SDS011;12020;51.384;6.908;2024-03-29T09:58:36;2.20;;;1.20;;
23684;SDS011;12020;51.384;6.908;2024-03-29T10:01:04;3.75;;;1.50;;
23684;SDS011;12020;51.384;6.908;2024-03-29T10:03:39;1.83;;;1.30;;
23684;SDS011;12020;51.384;6.908;2024-03-29T10:06:05;2.05;;;1.02;;
23684;SDS011;12020;51.384;6.908;2024-03-29T10:08:36;1.80;;;1.15;;
23684;SDS011;12020;51.384;6.908;2024-03-29T10:11:02;1.67;;;1.17;;
23684;SDS011;12020;51.384;6.908;2024-03-29T10:13:28;1.50;;;1.10;;
23684;SDS011;12020;51.384;6.908;2024-03-29T10:15:54;1.38;;;1.02;;
23684;SDS011;12020;51.384;6.908;2024-03-29T10:18:25;2.00;;;1.20;;
23684;SDS011;12020;51.384;6.908;2024-03-29T10:21:06;2.53;;;1.20;;
23684;SDS011;12020;51.384;6.908;2024-03-29T10:23:34;1.13;;;0.90;;
23684;SDS011;12020;51.384;6.908;2024-03-29T10:26:02;2.97;;;1.10;;
23684;SDS011;12020;51.384;6.908;2024-03-29T10:28:32;1.88;;;1.00;;
23684;SDS011;12020;51.384;6.908;2024-03-29T10:31:08;2.08;;;1.00;;
23684;SDS011;12020;51.384;6.908;2024-03-29T10:33:34;1.98;;;1.02;;
23684;SDS011;12020;51.384;6.908;2024-03-29T10:36:02;1.40;;;1.20;;
23684;SDS011;12020;51.384;6.908;2024-03-29T10:38:29;3.33;;;1.10;;
23684;SDS011;12020;51.384;6.908;2024-03-29T10:40:57;1.98;;;1.08;;
23684;SDS011;12020;51.384;6.908;2024-03-29T10:43:24;1.20;;;0.90;;
23684;SDS011;12020;51.384;6.908;2024-03-29T10:45:50;2.17;;;1.02;;
23684;SDS011;12020;51.384;6.908;2024-03-29T10:48:20;2.20;;;1.15;;
23684;SDS011;12020;51.384;6.908;2024-03-29T10:50:48;2.22;;;1.00;;
23684;SDS011;12020;51.384;6.908;2024-03-29T10:53:16;2.17;;;0.90;;
23684;SDS011;12020;51.384;6.908;2024-03-29T10:55:43;1.20;;;0.90;;
23684;SDS011;12020;51.384;6.908;2024-03-29T10:58:14;2.00;;;1.10;;
23684;SDS011;12020;51.384;6.908;2024-03-29T11:00:47;1.67;;;1.00;;
23684;SDS011;12020;51.384;6.908;2024-03-29T11:03:24;2.45;;;1.10;;
23684;SDS011;12020;51.384;6.908;2024-03-29T11:06:05;2.13;;;0.90;;
23684;SDS011;12020;51.384;6.908;2024-03-29T11:08:32;2.10;;;1.10;;
23684;SDS011;12020;51.384;6.908;2024-03-29T11:11:00;1.80;;;0.95;;
23684;SDS011;12020;51.384;6.908;2024-03-29T11:15:57;1.45;;;0.90;;
23684;SDS011;12020;51.384;6.908;2024-03-29T11:18:24;2.10;;;0.88;;
23684;SDS011;12020;51.384;6.908;2024-03-29T11:20:55;2.60;;;1.00;;
23684;SDS011;12020;51.384;6.908;2024-03-29T11:23:22;2.15;;;1.00;;
23684;SDS011;12020;51.384;6.908;2024-03-29T11:25:51;1.45;;;0.77;;
23684;SDS011;12020;51.384;6.908;2024-03-29T11:36:14;1.85;;;1.00;;
23684;SDS011;12020;51.384;6.908;2024-03-29T11:38:42;3.15;;;0.93;;
23684;SDS011;12020;51.384;6.908;2024-03-29T11:41:11;1.60;;;0.70;;
23684;SDS011;12020;51.384;6.908;2024-03-29T11:43:46;1.93;;;0.80;;
23684;SDS011;12020;51.384;6.908;2024-03-29T11:46:12;1.23;;;0.75;;
23684;SDS011;12020;51.384;6.908;2024-03-29T11:48:41;1.60;;;0.60;;
23684;SDS011;12020;51.384;6.908;2024-03-29T11:51:13;1.10;;;0.75;;
23684;SDS011;12020;51.384;6.908;2024-03-29T11:53:43;1.60;;;0.60;;
23684;SDS011;12020;51.384;6.908;2024-03-29T11:56:09;2.07;;;0.70;;
23684;SDS011;12020;51.384;6.908;2024-03-29T11:58:36;2.03;;;0.60;;
23684;SDS011;12020;51.384;6.908;2024-03-29T12:01:06;1.88;;;0.60;;
23684;SDS011;12020;51.384;6.908;2024-03-29T12:03:37;2.95;;;0.70;;
23684;SDS011;12020;51.384;6.908;2024-03-29T12:06:04;1.67;;;0.80;;
23684;SDS011;12020;51.384;6.908;2024-03-29T12:08:31;1.73;;;0.70;;
23684;SDS011;12020;51.384;6.908;2024-03-29T12:10:59;1.02;;;0.70;;
23684;SDS011;12020;51.384;6.908;2024-03-29T12:13:26;1.15;;;0.47;;
23684;SDS011;12020;51.384;6.908;2024-03-29T12:15:52;1.70;;;0.50;;
23684;SDS011;12020;51.384;6.908;2024-03-29T12:18:21;1.67;;;0.65;;
23684;SDS011;12020;51.384;6.908;2024-03-29T12:20:48;2.53;;;0.68;;
23684;SDS011;12020;51.384;6.908;2024-03-29T12:23:19;1.30;;;0.55;;
23684;SDS011;12020;51.384;6.908;2024-03-29T12:25:46;1.90;;;0.60;;
23684;SDS011;12020;51.384;6.908;2024-03-29T12:28:13;0.95;;;0.55;;
23684;SDS011;12020;51.384;6.908;2024-03-29T12:30:41;1.10;;;0.50;;
23684;SDS011;12020;51.384;6.908;2024-03-29T12:33:08;1.48;;;0.60;;
23684;SDS011;12020;51.384;6.908;2024-03-29T12:35:44;1.02;;;0.47;;
23684;SDS011;12020;51.384;6.908;2024-03-29T12:38:13;1.55;;;0.60;;
23684;SDS011;12020;51.384;6.908;2024-03-29T12:40:40;1.65;;;0.50;;
23684;SDS011;12020;51.384;6.908;2024-03-29T12:43:08;1.83;;;0.60;;
23684;SDS011;12020;51.384;6.908;2024-03-29T12:45:35;1.65;;;0.60;;
23684;SDS011;12020;51.384;6.908;2024-03-29T12:48:01;2.10;;;0.70;;
23684;SDS011;12020;51.384;6.908;2024-03-29T12:50:33;0.95;;;0.50;;
23684;SDS011;12020;51.384;6.908;2024-03-29T12:53:00;1.23;;;0.68;;
23684;SDS011;12020;51.384;6.908;2024-03-29T12:55:27;2.50;;;0.60;;
23684;SDS011;12020;51.384;6.908;2024-03-29T12:58:00;1.13;;;0.60;;
23684;SDS011;12020;51.384;6.908;2024-03-29T13:00:27;3.05;;;0.75;;
23684;SDS011;12020;51.384;6.908;2024-03-29T13:02:54;0.80;;;0.40;;
23684;SDS011;12020;51.384;6.908;2024-03-29T13:05:19;1.70;;;0.63;;
23684;SDS011;12020;51.384;6.908;2024-03-29T13:07:45;2.50;;;0.63;;
23684;SDS011;12020;51.384;6.908;2024-03-29T13:10:12;1.50;;;0.53;;
23684;SDS011;12020;51.384;6.908;2024-03-29T13:12:39;1.52;;;0.60;;
23684;SDS011;12020;51.384;6.908;2024-03-29T13:15:18;1.55;;;0.50;;
23684;SDS011;12020;51.384;6.908;2024-03-29T13:17:45;2.15;;;0.73;;
23684;SDS011;12020;51.384;6.908;2024-03-29T13:20:13;1.60;;;0.60;;
23684;SDS011;12020;51.384;6.908;2024-03-29T13:22:43;0.80;;;0.50;;
23684;SDS011;12020;51.384;6.908;2024-03-29T13:25:14;1.60;;;0.53;;
23684;SDS011;12020;51.384;6.908;2024-03-29T13:27:44;1.80;;;0.60;;
23684;SDS011;12020;51.384;6.908;2024-03-29T13:30:12;1.08;;;0.50;;
23684;SDS011;12020;51.384;6.908;2024-03-29T13:32:39;1.60;;;0.50;;
23684;SDS011;12020;51.384;6.908;2024-03-29T13:35:06;1.97;;;0.60;;
23684;SDS011;12020;51.384;6.908;2024-03-29T13:37:37;1.10;;;0.40;;
23684;SDS011;12020;51.384;6.908;2024-03-29T13:40:03;1.70;;;0.80;;
23684;SDS011;12020;51.384;6.908;2024-03-29T13:42:30;1.08;;;0.47;;
23684;SDS011;12020;51.384;6.908;2024-03-29T13:44:56;1.98;;;0.40;;
23684;SDS011;12020;51.384;6.908;2024-03-29T13:47:22;1.02;;;0.50;;
23684;SDS011;12020;51.384;6.908;2024-03-29T13:49:47;2.25;;;0.60;;
23684;SDS011;12020;51.384;6.908;2024-03-29T13:52:15;1.58;;;0.70;;
23684;SDS011;12020;51.384;6.908;2024-03-29T13:54:44;0.68;;;0.40;;
23684;SDS011;12020;51.384;6.908;2024-03-29T13:57:16;1.10;;;0.40;;
23684;SDS011;12020;51.384;6.908;2024-03-29T13:59:45;1.30;;;0.50;;
23684;SDS011;12020;51.384;6.908;2024-03-29T14:02:11;0.55;;;0.40;;
23684;SDS011;12020;51.384;6.908;2024-03-29T14:04:41;0.60;;;0.43;;
23684;SDS011;12020;51.384;6.908;2024-03-29T14:07:08;1.47;;;0.47;;
23684;SDS011;12020;51.384;6.908;2024-03-29T14:09:38;0.75;;;0.50;;
23684;SDS011;12020;51.384;6.908;2024-03-29T14:12:08;1.60;;;0.70;;
23684;SDS011;12020;51.384;6.908;2024-03-29T14:14:35;1.00;;;0.57;;
23684;SDS011;12020;51.384;6.908;2024-03-29T14:17:01;1.48;;;0.50;;
23684;SDS011;12020;51.384;6.908;2024-03-29T14:19:35;1.38;;;0.57;;
23684;SDS011;12020;51.384;6.908;2024-03-29T14:22:02;1.17;;;0.50;;
23684;SDS011;12020;51.384;6.908;2024-03-29T14:24:28;1.33;;;0.50;;
23684;SDS011;12020;51.384;6.908;2024-03-29T14:26:58;0.70;;;0.50;;
23684;SDS011;12020;51.384;6.908;2024-03-29T14:29:24;1.33;;;0.50;;
23684;SDS011;12020;51.384;6.908;2024-03-29T14:31:50;0.80;;;0.43;;
23684;SDS011;12020;51.384;6.908;2024-03-29T14:34:16;0.82;;;0.40;;
23684;SDS011;12020;51.384;6.908;2024-03-29T14:36:42;1.00;;;0.40;;
23684;SDS011;12020;51.384;6.908;2024-03-29T14:39:09;0.65;;;0.40;;
23684;SDS011;12020;51.384;6.908;2024-03-29T14:41:37;1.20;;;0.52;;
23684;SDS011;12020;51.384;6.908;2024-03-29T14:44:04;1.50;;;0.50;;
23684;SDS011;12020;51.384;6.908;2024-03-29T14:46:33;1.55;;;0.40;;
23684;SDS011;12020;51.384;6.908;2024-03-29T14:49:00;0.90;;;0.30;;
23684;SDS011;12020;51.384;6.908;2024-03-29T14:51:32;0.60;;;0.32;;
23684;SDS011;12020;51.384;6.908;2024-03-29T14:53:58;1.58;;;0.30;;
23684;SDS011;12020;51.384;6.908;2024-03-29T14:56:24;0.45;;;0.30;;
23684;SDS011;12020;51.384;6.908;2024-03-29T14:58:50;1.63;;;0.40;;
23684;SDS011;12020;51.384;6.908;2024-03-29T15:01:16;0.87;;;0.40;;